createdAt,value
2022-12-01T00:01:23.500Z,7.50
2022-12-01T00:03:51.896Z,8.10
2022-12-01T00:06:21.352Z,8.00
2022-12-01T00:09:12.949Z,6.87
2022-12-01T00:11:45.178Z,8.23
2022-12-01T00:14:14.681Z,7.50
2022-12-01T00:16:44.577Z,7.53
2022-12-01T00:19:13.017Z,7.80
2022-12-01T00:21:41.148Z,7.07
2022-12-01T00:24:11.282Z,8.47
2022-12-01T00:26:40.161Z,6.97
2022-12-01T00:29:08.293Z,6.80
2022-12-01T00:31:38.296Z,6.80
2022-12-01T00:34:11.019Z,5.70
2022-12-01T00:36:40.076Z,6.50
2022-12-01T00:39:08.287Z,5.63
2022-12-01T00:41:36.402Z,5.67
2022-12-01T00:44:04.700Z,6.90
2022-12-01T00:46:32.928Z,6.33
2022-12-01T00:49:02.666Z,6.47
2022-12-01T00:51:31.345Z,6.87
2022-12-01T00:53:59.744Z,7.50
2022-12-01T00:56:28.027Z,6.13
2022-12-01T00:58:56.287Z,6.20
2022-12-01T01:01:24.556Z,6.03
2022-12-01T01:03:52.768Z,6.97
2022-12-01T01:06:22.370Z,5.80
2022-12-01T01:08:50.805Z,5.67
2022-12-01T01:11:19.021Z,6.40
2022-12-01T01:13:47.291Z,6.27
2022-12-01T01:16:18.081Z,6.03
2022-12-01T01:18:46.316Z,5.93
2022-12-01T01:21:16.872Z,6.40
2022-12-01T01:23:46.578Z,6.53
2022-12-01T01:26:16.900Z,5.70
2022-12-01T01:28:45.577Z,6.00
2022-12-01T01:31:16.558Z,5.67
2022-12-01T01:33:44.894Z,6.13
2022-12-01T01:36:13.822Z,6.00
2022-12-01T01:38:42.180Z,6.90
2022-12-01T01:41:12.136Z,6.40
2022-12-01T01:43:46.279Z,5.90
2022-12-01T01:46:17.080Z,6.20
2022-12-01T01:48:54.451Z,5.97
2022-12-01T01:51:27.095Z,6.73
2022-12-01T01:54:00.083Z,6.00
2022-12-01T01:56:30.324Z,7.03
2022-12-01T01:58:59.598Z,6.20
2022-12-01T02:01:27.896Z,6.40
2022-12-01T02:03:57.296Z,5.83
2022-12-01T02:06:25.519Z,6.70
2022-12-01T02:08:53.772Z,6.23
2022-12-01T02:11:48.736Z,6.70
2022-12-01T02:14:44.938Z,6.53
2022-12-01T02:17:22.748Z,6.30
2022-12-01T02:20:20.866Z,6.63
2022-12-01T02:23:02.457Z,6.77
2022-12-01T02:25:44.412Z,6.80
2022-12-01T02:28:34.658Z,6.90
2022-12-01T02:31:09.145Z,6.77
2022-12-01T02:33:41.787Z,6.97
2022-12-01T02:36:17.751Z,6.37
2022-12-01T02:38:53.439Z,6.17
2022-12-01T02:41:27.949Z,6.40
2022-12-01T02:44:01.536Z,5.77
2022-12-01T02:46:35.295Z,5.47
2022-12-01T02:49:08.299Z,6.77
2022-12-01T02:51:38.683Z,6.20
2022-12-01T02:54:07.151Z,6.50
2022-12-01T02:56:35.414Z,7.00
2022-12-01T02:59:03.585Z,6.70
2022-12-01T03:01:50.629Z,6.20
2022-12-01T03:04:39.001Z,6.43
2022-12-01T03:07:16.629Z,7.60
2022-12-01T03:09:54.334Z,6.80
2022-12-01T03:12:33.128Z,6.37
2022-12-01T03:15:08.149Z,7.27
2022-12-01T03:17:44.701Z,7.37
2022-12-01T03:20:19.920Z,7.40
2022-12-01T03:22:52.171Z,7.40
2022-12-01T03:25:22.982Z,7.17
2022-12-01T03:28:20.236Z,8.27
2022-12-01T03:30:46.559Z,7.23
2022-12-01T03:33:20.074Z,6.97
2022-12-01T03:35:54.689Z,7.03
2022-12-01T03:38:26.118Z,6.80
2022-12-01T03:40:59.504Z,7.50
2022-12-01T03:43:34.073Z,7.83
2022-12-01T03:46:08.684Z,7.87
2022-12-01T03:48:39.330Z,8.20
2022-12-01T03:51:14.421Z,7.47
2022-12-01T03:53:52.790Z,7.20
2022-12-01T03:56:23.814Z,8.03
2022-12-01T03:58:55.845Z,7.80
2022-12-01T04:01:24.205Z,7.27
2022-12-01T04:03:53.792Z,7.60
2022-12-01T04:06:21.912Z,7.10
2022-12-01T04:08:50.108Z,8.07
2022-12-01T04:11:35.527Z,7.00
2022-12-01T04:14:03.723Z,7.50
2022-12-01T04:16:31.973Z,7.63
2022-12-01T04:19:01.629Z,8.27
2022-12-01T04:21:29.917Z,7.50
2022-12-01T04:24:03.664Z,7.77
2022-12-01T04:26:33.651Z,7.50
2022-12-01T04:29:02.018Z,8.30
2022-12-01T04:31:30.816Z,7.87
2022-12-01T04:33:59.795Z,8.87
2022-12-01T04:36:32.254Z,7.83
2022-12-01T04:39:00.636Z,8.60
2022-12-01T04:41:29.078Z,8.20
2022-12-01T04:43:57.758Z,8.23
2022-12-01T04:46:26.360Z,11.10
2022-12-01T04:48:54.575Z,9.63
2022-12-01T04:51:22.729Z,8.67
2022-12-01T04:53:52.448Z,8.87
2022-12-01T04:56:20.710Z,8.97
2022-12-01T04:58:48.909Z,9.43
2022-12-01T05:01:19.353Z,10.27
2022-12-01T05:03:50.396Z,9.80
2022-12-01T05:06:20.137Z,8.97
2022-12-01T05:08:48.620Z,9.80
2022-12-01T05:11:19.372Z,10.93
2022-12-01T05:13:49.531Z,10.10
2022-12-01T05:16:19.921Z,10.03
2022-12-01T05:18:52.001Z,9.70
2022-12-01T05:21:19.145Z,9.80
2022-12-01T05:23:47.422Z,9.47
2022-12-01T05:26:16.990Z,9.90
2022-12-01T05:28:45.161Z,9.60
2022-12-01T05:31:13.633Z,9.37
2022-12-01T05:33:41.882Z,10.03
2022-12-01T05:36:10.686Z,10.10
2022-12-01T05:38:40.728Z,10.33
2022-12-01T05:41:08.848Z,9.93
2022-12-01T05:43:38.538Z,10.20
2022-12-01T05:46:06.874Z,8.93
2022-12-01T05:48:35.055Z,9.80
2022-12-01T05:51:10.108Z,9.43
2022-12-01T05:53:38.526Z,9.80
2022-12-01T05:56:08.201Z,11.30
2022-12-01T05:58:37.742Z,11.63
2022-12-01T06:01:06.264Z,10.33
2022-12-01T06:03:34.605Z,10.37
2022-12-01T06:06:02.909Z,11.50
2022-12-01T06:08:31.252Z,11.13
2022-12-01T06:10:59.637Z,14.17
2022-12-01T06:13:27.771Z,34.17
2022-12-01T06:16:02.637Z,12.67
2022-12-01T06:18:32.980Z,13.97
2022-12-01T06:21:01.224Z,12.60
2022-12-01T06:23:30.769Z,12.50
2022-12-01T06:25:59.113Z,12.53
2022-12-01T06:28:27.279Z,12.33
2022-12-01T06:30:59.473Z,11.77
2022-12-01T06:33:32.879Z,12.40
2022-12-01T06:36:01.888Z,11.67
2022-12-01T06:38:32.603Z,13.77
2022-12-01T06:41:00.743Z,14.30
2022-12-01T06:43:29.444Z,13.53
2022-12-01T06:46:01.585Z,13.90
2022-12-01T06:48:32.380Z,14.20
2022-12-01T06:51:00.778Z,16.23
2022-12-01T06:53:29.486Z,15.87
2022-12-01T06:56:01.241Z,15.70
2022-12-01T06:58:29.833Z,14.60
2022-12-01T07:00:58.913Z,15.30
2022-12-01T07:03:27.164Z,15.77
2022-12-01T07:06:01.411Z,16.20
2022-12-01T07:08:30.506Z,15.77
2022-12-01T07:10:59.960Z,17.07
2022-12-01T07:13:33.145Z,16.40
2022-12-01T07:16:02.988Z,16.40
2022-12-01T07:18:31.433Z,15.80
2022-12-01T07:21:02.602Z,16.00
2022-12-01T07:23:31.275Z,17.20
2022-12-01T07:26:00.661Z,16.57
2022-12-01T07:28:29.032Z,17.33
2022-12-01T07:31:03.394Z,18.70
2022-12-01T07:33:32.208Z,18.23
2022-12-01T07:36:02.081Z,17.60
2022-12-01T07:38:30.634Z,19.53
2022-12-01T07:41:03.711Z,21.53
2022-12-01T07:43:32.799Z,29.03
2022-12-01T07:46:06.636Z,21.30
2022-12-01T07:48:34.931Z,17.70
2022-12-01T07:51:04.768Z,17.10
2022-12-01T07:53:33.419Z,19.07
2022-12-01T07:56:05.697Z,18.80
2022-12-01T07:58:36.867Z,19.07
2022-12-01T08:01:09.855Z,20.33
2022-12-01T08:03:38.440Z,20.60
2022-12-01T08:06:09.075Z,18.80
2022-12-01T08:08:40.128Z,19.20
2022-12-01T08:11:11.385Z,17.83
2022-12-01T08:13:40.182Z,18.77
2022-12-01T08:16:10.025Z,20.20
2022-12-01T08:18:39.104Z,18.67
2022-12-01T08:21:10.541Z,20.00
2022-12-01T08:23:38.789Z,20.27
2022-12-01T08:26:08.793Z,20.50
2022-12-01T08:28:38.783Z,20.70
2022-12-01T08:31:11.991Z,18.37
2022-12-01T08:33:42.254Z,21.07
2022-12-01T08:36:11.948Z,19.10
2022-12-01T08:38:40.157Z,18.67
2022-12-01T08:41:09.928Z,18.00
2022-12-01T08:46:29.664Z,18.33
2022-12-01T08:48:58.197Z,18.40
2022-12-01T08:51:28.250Z,19.07
2022-12-01T08:53:58.137Z,18.03
2022-12-01T08:56:28.471Z,18.03
2022-12-01T08:58:59.788Z,18.23
2022-12-01T09:01:32.659Z,19.03
2022-12-01T09:04:09.127Z,19.20
2022-12-01T09:06:42.595Z,20.10
2022-12-01T09:09:13.306Z,18.33
2022-12-01T09:11:43.729Z,21.27
2022-12-01T09:14:12.410Z,19.40
2022-12-01T09:16:40.748Z,18.80
2022-12-01T09:19:09.178Z,19.97
2022-12-01T09:21:38.462Z,19.70
2022-12-01T09:24:09.755Z,20.30
2022-12-01T09:26:37.878Z,19.50
2022-12-01T09:29:08.078Z,20.50
2022-12-01T09:31:36.714Z,20.20
2022-12-01T09:34:07.082Z,18.03
2022-12-01T09:36:37.376Z,17.63
2022-12-01T09:39:08.067Z,18.10
2022-12-01T09:41:48.432Z,18.10
2022-12-01T09:44:26.793Z,19.30
2022-12-01T09:47:00.129Z,18.40
2022-12-01T09:49:40.747Z,20.40
2022-12-01T09:52:12.604Z,19.00
2022-12-01T09:54:42.392Z,19.27
2022-12-01T09:57:18.547Z,16.80
2022-12-01T09:59:48.137Z,18.00
2022-12-01T10:02:27.849Z,17.07
2022-12-01T10:04:59.860Z,18.20
2022-12-01T10:07:33.064Z,16.67
2022-12-01T10:10:06.073Z,15.87
2022-12-01T10:12:35.987Z,15.77
2022-12-01T10:15:31.040Z,16.30
2022-12-01T10:18:10.896Z,14.47
2022-12-01T10:20:46.781Z,16.63
2022-12-01T10:23:42.010Z,17.60
2022-12-01T10:26:17.179Z,20.90
2022-12-01T10:28:55.063Z,17.50
2022-12-01T10:31:36.667Z,17.20
2022-12-01T10:34:09.127Z,15.33
2022-12-01T10:36:37.324Z,14.70
2022-12-01T10:39:07.903Z,15.00
2022-12-01T10:41:40.453Z,16.03
2022-12-01T10:44:09.812Z,19.20
2022-12-01T10:46:44.324Z,20.90
2022-12-01T10:49:14.385Z,20.30
2022-12-01T10:51:56.902Z,19.80
2022-12-01T10:54:33.974Z,19.90
2022-12-01T10:57:04.280Z,19.80
2022-12-01T10:59:36.900Z,19.70
2022-12-01T11:02:15.414Z,20.23
2022-12-01T11:04:47.385Z,17.90
2022-12-01T11:07:21.761Z,18.00
2022-12-01T11:10:01.204Z,16.27
2022-12-01T11:12:31.106Z,17.93
2022-12-01T11:14:59.714Z,17.20
2022-12-01T11:17:32.648Z,17.57
2022-12-01T11:20:18.016Z,19.60
2022-12-01T11:22:46.261Z,16.20
2022-12-01T11:25:21.744Z,15.37
2022-12-01T11:27:54.307Z,17.70
2022-12-01T11:30:24.784Z,14.23
2022-12-01T11:32:56.152Z,15.67
2022-12-01T11:35:27.224Z,15.33
2022-12-01T11:38:28.182Z,14.50
2022-12-01T11:40:52.172Z,15.90
2022-12-01T11:43:27.513Z,16.83
2022-12-01T11:45:58.098Z,19.43
2022-12-01T11:48:28.311Z,24.20
2022-12-01T11:51:06.712Z,14.73
2022-12-01T11:53:36.418Z,14.77
2022-12-01T11:56:20.980Z,14.80
2022-12-01T11:58:52.207Z,12.70
2022-12-01T12:01:31.529Z,11.90
2022-12-01T12:04:10.559Z,11.80
2022-12-01T12:06:45.783Z,12.37
2022-12-01T12:09:45.119Z,12.30
2022-12-01T12:12:24.644Z,10.53
2022-12-01T12:15:05.729Z,12.40
2022-12-01T12:17:50.079Z,11.20
2022-12-01T12:20:43.919Z,11.47
2022-12-01T12:23:44.589Z,11.27
2022-12-01T12:26:21.303Z,10.47
2022-12-01T12:29:13.790Z,10.10
2022-12-01T12:31:54.711Z,10.63
2022-12-01T12:34:36.168Z,10.57
2022-12-01T12:37:17.660Z,10.10
2022-12-01T12:40:06.207Z,9.53
2022-12-01T12:42:44.845Z,10.70
2022-12-01T12:45:21.652Z,10.20
2022-12-01T12:48:02.610Z,10.03
2022-12-01T12:50:37.694Z,11.70
2022-12-01T12:53:11.335Z,11.00
2022-12-01T12:55:44.258Z,9.93
2022-12-01T12:58:19.283Z,11.40
2022-12-01T13:00:52.585Z,15.20
2022-12-01T13:03:33.737Z,13.57
2022-12-01T13:06:06.934Z,16.10
2022-12-01T13:08:41.112Z,16.50
2022-12-01T13:11:16.094Z,15.60
2022-12-01T13:13:55.217Z,16.07
2022-12-01T13:16:28.262Z,20.23
2022-12-01T13:19:05.112Z,15.70
2022-12-01T13:21:38.388Z,16.90
2022-12-01T13:24:08.660Z,14.40
2022-12-01T13:26:38.970Z,16.50
2022-12-01T13:29:09.167Z,18.10
2022-12-01T13:31:49.439Z,19.60
2022-12-01T13:34:25.960Z,17.40
2022-12-01T13:36:56.530Z,16.80
2022-12-01T13:39:26.690Z,17.17
2022-12-01T13:42:03.773Z,15.27
2022-12-01T13:44:38.523Z,15.77
2022-12-01T13:47:40.102Z,13.93
2022-12-01T13:50:54.166Z,15.80
2022-12-01T13:53:32.955Z,15.50
2022-12-01T13:56:27.401Z,12.63
2022-12-01T13:58:56.341Z,13.40
2022-12-01T14:02:08.362Z,13.77
2022-12-01T14:04:37.278Z,14.50
2022-12-01T14:07:31.435Z,15.13
2022-12-01T14:10:26.045Z,18.70
2022-12-01T14:12:57.185Z,20.67
2022-12-01T14:15:34.575Z,19.73
2022-12-01T14:18:07.200Z,24.30
2022-12-01T14:20:44.669Z,22.17
2022-12-01T14:23:17.420Z,69.97
2022-12-01T14:26:13.636Z,21.27
2022-12-01T14:29:30.041Z,23.33
2022-12-01T14:32:23.037Z,16.70
2022-12-01T14:35:07.322Z,15.23
2022-12-01T14:37:47.339Z,14.90
2022-12-01T14:40:22.556Z,14.40
2022-12-01T14:43:13.491Z,14.53
2022-12-01T14:45:48.662Z,15.63
2022-12-01T14:48:21.283Z,20.13
2022-12-01T14:50:52.460Z,16.27
2022-12-01T14:53:25.959Z,14.30
2022-12-01T14:55:57.519Z,15.40
2022-12-01T14:58:29.690Z,15.50
2022-12-01T15:01:09.942Z,16.40
2022-12-01T15:03:42.479Z,16.03
2022-12-01T15:06:11.588Z,18.40
2022-12-01T15:08:43.558Z,17.53
2022-12-01T15:11:22.310Z,15.77
2022-12-01T15:13:55.364Z,17.67
2022-12-01T15:16:25.029Z,17.47
2022-12-01T15:18:53.426Z,16.50
2022-12-01T15:21:26.571Z,15.73
2022-12-01T15:23:56.721Z,16.37
2022-12-01T15:26:27.359Z,17.13
2022-12-01T15:29:16.858Z,19.67
2022-12-01T15:31:49.424Z,16.70
2022-12-01T15:34:20.434Z,22.57
2022-12-01T15:36:49.639Z,15.50
2022-12-01T15:39:20.054Z,15.57
2022-12-01T15:41:53.952Z,16.10
2022-12-01T15:44:29.142Z,15.70
2022-12-01T15:46:57.740Z,17.37
2022-12-01T15:49:29.640Z,17.90
2022-12-01T15:52:07.596Z,19.57
2022-12-01T15:54:37.104Z,21.20
2022-12-01T15:57:06.692Z,22.10
2022-12-01T15:59:40.096Z,21.47
2022-12-01T16:02:20.742Z,19.60
2022-12-01T16:04:49.813Z,21.67
2022-12-01T16:07:18.286Z,20.50
2022-12-01T16:09:58.302Z,21.43
2022-12-01T16:12:27.978Z,22.93
2022-12-01T16:15:08.323Z,23.30
2022-12-01T16:17:44.435Z,18.13
2022-12-01T16:20:23.862Z,20.90
2022-12-01T16:22:58.919Z,22.30
2022-12-01T16:25:34.665Z,23.30
2022-12-01T16:28:03.939Z,22.83
2022-12-01T16:30:40.337Z,20.77
2022-12-01T16:33:19.151Z,29.03
2022-12-01T16:35:47.645Z,20.87
2022-12-01T16:38:20.640Z,22.87
2022-12-01T16:40:49.795Z,20.43
2022-12-01T16:43:19.683Z,21.00
2022-12-01T16:45:53.028Z,21.30
2022-12-01T16:48:21.631Z,22.10
2022-12-01T16:50:50.694Z,22.93
2022-12-01T16:53:19.145Z,24.77
2022-12-01T16:55:50.786Z,24.90
2022-12-01T16:58:19.100Z,21.43
2022-12-01T17:00:52.771Z,22.37
2022-12-01T17:03:22.864Z,22.23
2022-12-01T17:05:52.174Z,21.00
2022-12-01T17:08:21.294Z,20.80
2022-12-01T17:10:51.479Z,24.97
2022-12-01T17:13:21.654Z,22.87
2022-12-01T17:15:53.855Z,23.30
2022-12-01T17:18:24.218Z,23.60
2022-12-01T17:20:59.922Z,23.13
2022-12-01T17:23:29.044Z,20.63
2022-12-01T17:25:57.497Z,23.30
2022-12-01T17:28:25.680Z,25.50
2022-12-01T17:30:55.316Z,25.00
2022-12-01T17:33:23.701Z,21.70
2022-12-01T17:35:51.976Z,24.67
2022-12-01T17:38:20.413Z,22.83
2022-12-01T17:41:01.556Z,23.00
2022-12-01T17:43:30.285Z,25.50
2022-12-01T17:45:59.909Z,23.43
2022-12-01T17:48:28.757Z,25.03
2022-12-01T17:50:57.032Z,24.83
2022-12-01T17:53:25.302Z,23.87
2022-12-01T17:55:53.554Z,22.70
2022-12-01T17:58:22.234Z,24.70
2022-12-01T18:00:51.370Z,26.50
2022-12-01T18:03:21.438Z,23.27
2022-12-01T18:05:56.557Z,23.30
2022-12-01T18:08:25.441Z,21.70
2022-12-01T18:10:53.933Z,27.90
2022-12-01T18:13:22.514Z,28.07
2022-12-01T18:15:50.959Z,23.97
2022-12-01T18:18:20.650Z,22.23
2022-12-01T18:20:48.992Z,25.40
2022-12-01T18:23:17.171Z,27.30
2022-12-01T18:25:45.394Z,24.33
2022-12-01T18:28:13.650Z,22.93
2022-12-01T18:30:41.936Z,24.27
2022-12-01T18:33:12.297Z,23.30
2022-12-01T18:35:45.812Z,25.87
2022-12-01T18:38:14.009Z,23.70
2022-12-01T18:40:42.255Z,24.10
2022-12-01T18:43:10.599Z,25.47
2022-12-01T18:45:40.849Z,24.03
2022-12-01T18:48:09.406Z,24.30
2022-12-01T18:50:38.036Z,25.77
2022-12-01T18:53:07.685Z,24.00
2022-12-01T18:55:37.450Z,24.73
2022-12-01T18:58:05.600Z,23.57
2022-12-01T19:00:33.862Z,28.87
2022-12-01T19:03:03.073Z,23.43
2022-12-01T19:05:31.870Z,24.90
2022-12-01T19:08:00.231Z,24.57
2022-12-01T19:10:29.938Z,23.70
2022-12-01T19:13:00.708Z,26.60
2022-12-01T19:15:30.092Z,24.40
2022-12-01T19:18:02.424Z,23.53
2022-12-01T19:20:30.846Z,26.40
2022-12-01T19:23:02.567Z,28.77
2022-12-01T19:25:37.086Z,27.93
2022-12-01T19:28:06.684Z,29.93
2022-12-01T19:30:34.986Z,28.87
2022-12-01T19:33:03.319Z,28.83
2022-12-01T19:35:34.155Z,30.33
2022-12-01T19:38:05.432Z,32.20
2022-12-01T19:40:35.285Z,32.27
2022-12-01T19:43:03.580Z,31.77
2022-12-01T19:45:37.811Z,28.10
2022-12-01T19:48:14.580Z,31.63
2022-12-01T19:50:45.695Z,27.57
2022-12-01T19:53:13.877Z,28.17
2022-12-01T19:55:43.484Z,29.90
2022-12-01T19:58:11.770Z,31.33
2022-12-01T20:00:39.958Z,31.50
2022-12-01T20:03:08.247Z,29.20
2022-12-01T20:05:36.396Z,29.97
2022-12-01T20:08:05.101Z,43.47
2022-12-01T20:10:33.353Z,40.97
2022-12-01T20:13:03.052Z,33.00
2022-12-01T20:15:33.826Z,27.60
2022-12-01T20:18:02.124Z,26.63
2022-12-01T20:20:30.389Z,26.20
2022-12-01T20:22:59.512Z,25.30
2022-12-01T20:25:28.032Z,26.30
2022-12-01T20:27:57.224Z,25.80
2022-12-01T20:30:27.995Z,26.40
2022-12-01T20:32:56.636Z,26.87
2022-12-01T20:35:25.234Z,26.73
2022-12-01T20:37:53.496Z,26.40
2022-12-01T20:40:21.810Z,27.60
2022-12-01T20:42:53.176Z,26.73
2022-12-01T20:45:21.934Z,29.13
2022-12-01T20:47:51.614Z,27.73
2022-12-01T20:50:21.386Z,28.47
2022-12-01T20:52:50.239Z,27.73
2022-12-01T20:55:19.750Z,26.73
2022-12-01T20:57:48.016Z,27.57
2022-12-01T21:00:17.485Z,27.30
2022-12-01T21:02:47.947Z,27.07
2022-12-01T21:05:18.562Z,26.87
2022-12-01T21:07:47.717Z,27.50
2022-12-01T21:10:19.920Z,31.70
2022-12-01T21:13:19.544Z,28.37
2022-12-01T21:15:56.280Z,30.40
2022-12-01T21:18:34.714Z,27.00
2022-12-01T21:21:08.057Z,28.30
2022-12-01T21:23:36.356Z,26.97
2022-12-01T21:26:10.013Z,26.63
2022-12-01T21:28:38.785Z,27.90
2022-12-01T21:31:14.067Z,26.20
2022-12-01T21:33:42.993Z,26.70
2022-12-01T21:36:18.252Z,26.53
2022-12-01T21:38:47.323Z,28.10
2022-12-01T21:41:21.745Z,28.27
2022-12-01T21:43:50.018Z,28.47
2022-12-01T21:46:19.277Z,27.73
2022-12-01T21:48:47.529Z,27.47
2022-12-01T21:51:22.965Z,27.43
2022-12-01T21:53:55.341Z,28.43
2022-12-01T21:56:26.634Z,26.97
2022-12-01T21:59:00.069Z,28.03
2022-12-01T22:01:34.165Z,27.80
2022-12-01T22:04:12.330Z,28.23
2022-12-01T22:06:48.613Z,27.27
2022-12-01T22:09:33.055Z,27.23
2022-12-01T22:12:19.191Z,27.70
2022-12-01T22:14:52.042Z,27.00
2022-12-01T22:17:23.941Z,27.07
2022-12-01T22:20:01.572Z,26.63
2022-12-01T22:22:36.642Z,27.00
2022-12-01T22:25:24.018Z,31.70
2022-12-01T22:28:00.753Z,28.53
2022-12-01T22:30:29.862Z,27.60
2022-12-01T22:33:03.674Z,28.47
2022-12-01T22:35:35.816Z,27.60
2022-12-01T22:38:25.752Z,26.97
2022-12-01T22:40:58.278Z,26.07
2022-12-01T22:43:55.069Z,26.97
2022-12-01T22:46:30.445Z,27.57
2022-12-01T22:49:00.271Z,26.97
2022-12-01T22:51:49.086Z,27.57
2022-12-01T22:54:28.990Z,26.47
2022-12-01T22:57:26.228Z,26.73
2022-12-01T22:59:55.312Z,26.10
2022-12-01T23:02:25.510Z,26.20
2022-12-01T23:04:57.724Z,25.87
2022-12-01T23:07:34.616Z,27.60
2022-12-01T23:10:13.367Z,27.03
2022-12-01T23:12:42.859Z,27.20
2022-12-01T23:15:23.819Z,24.73
2022-12-01T23:17:52.528Z,24.90
2022-12-01T23:20:31.160Z,27.30
2022-12-01T23:23:01.686Z,26.77
2022-12-01T23:25:32.176Z,26.23
2022-12-01T23:28:04.421Z,27.27
2022-12-01T23:30:33.165Z,26.80
2022-12-01T23:33:10.647Z,27.43
2022-12-01T23:35:42.348Z,27.43
2022-12-01T23:38:17.177Z,26.90
2022-12-01T23:40:47.237Z,26.70
2022-12-01T23:43:20.422Z,25.27
2022-12-01T23:45:50.988Z,26.50
2022-12-01T23:48:23.348Z,26.57
2022-12-01T23:50:54.482Z,25.20
2022-12-01T23:53:29.696Z,24.60
2022-12-01T23:56:06.784Z,26.70
2022-12-01T23:58:35.893Z,24.67
